createdAt,value
2023-04-12T00:02:01.098Z,47.63
2023-04-12T00:07:23.659Z,47.60
2023-04-12T00:12:16.060Z,48.06
2023-04-12T00:17:15.997Z,48.26
2023-04-12T00:22:15.935Z,48.35
2023-04-12T00:27:15.846Z,48.89
2023-04-12T00:32:16.193Z,49.05
2023-04-12T00:37:15.686Z,49.74
2023-04-12T00:42:15.640Z,50.33
2023-04-12T00:47:15.576Z,50.77
2023-04-12T00:52:15.518Z,51.05
2023-04-12T00:57:15.443Z,51.09
2023-04-12T01:02:15.455Z,51.75
2023-04-12T01:07:15.312Z,52.23
2023-04-12T01:12:15.253Z,52.58
2023-04-12T01:17:15.176Z,53.16
2023-04-12T01:22:15.124Z,53.57
2023-04-12T01:27:15.013Z,53.93
2023-04-12T01:32:15.004Z,53.91
2023-04-12T01:37:14.908Z,54.16
2023-04-12T01:42:14.846Z,54.64
2023-04-12T01:47:14.789Z,54.75
2023-04-12T01:52:14.730Z,55.21
2023-04-12T01:57:14.638Z,55.48
2023-04-12T02:02:14.659Z,55.83
2023-04-12T02:07:14.561Z,56.03
2023-04-12T02:12:14.475Z,56.33
2023-04-12T02:17:14.378Z,56.69
2023-04-12T02:22:14.362Z,56.77
2023-04-12T02:27:14.238Z,56.67
2023-04-12T02:32:14.209Z,56.91
2023-04-12T02:37:14.106Z,57.13
2023-04-12T02:42:14.054Z,57.34
2023-04-12T02:47:14.000Z,57.40
2023-04-12T02:52:13.919Z,57.79
2023-04-12T02:57:13.853Z,58.13
2023-04-12T03:02:13.855Z,58.28
2023-04-12T03:07:14.520Z,59.00
2023-04-12T03:12:13.669Z,59.48
2023-04-12T03:17:13.593Z,59.62
2023-04-12T03:22:13.516Z,59.51
2023-04-12T03:27:13.454Z,59.71
2023-04-12T03:32:13.396Z,60.05
2023-04-12T03:37:13.343Z,60.37
2023-04-12T03:42:25.508Z,60.87
2023-04-12T03:47:14.198Z,61.02
2023-04-12T03:52:13.121Z,61.48
2023-04-12T03:57:13.061Z,61.73
2023-04-12T04:02:13.037Z,61.94
2023-04-12T04:07:12.912Z,61.94
2023-04-12T04:12:12.869Z,62.00
2023-04-12T04:17:23.769Z,62.02
2023-04-12T04:22:16.164Z,62.39
2023-04-12T04:27:16.091Z,62.72
2023-04-12T04:32:16.053Z,62.63
2023-04-12T04:37:16.046Z,62.71
2023-04-12T04:42:15.908Z,62.75
2023-04-12T04:47:15.842Z,62.69
2023-04-12T04:52:15.816Z,62.76
2023-04-12T04:57:15.711Z,62.82
2023-04-12T05:02:15.687Z,62.78
2023-04-12T05:07:15.645Z,62.93
2023-04-12T05:12:15.490Z,63.08
2023-04-12T05:17:15.602Z,63.22
2023-04-12T05:22:15.360Z,63.58
2023-04-12T05:27:15.343Z,63.62
2023-04-12T05:32:15.224Z,63.58
2023-04-12T05:37:15.208Z,63.58
2023-04-12T05:42:15.112Z,63.87
2023-04-12T05:47:15.046Z,63.75
2023-04-12T05:52:14.966Z,63.64
2023-04-12T05:57:14.926Z,63.83
2023-04-12T06:02:14.945Z,63.93
2023-04-12T06:07:14.804Z,64.12
2023-04-12T06:12:14.726Z,64.24
2023-04-12T06:17:14.681Z,64.26
2023-04-12T06:22:14.599Z,64.28
2023-04-12T06:27:14.545Z,64.38
2023-04-12T06:32:14.480Z,64.77
2023-04-12T06:37:14.391Z,64.46
2023-04-12T06:42:14.781Z,64.46
2023-04-12T06:47:14.275Z,64.57
2023-04-12T06:52:14.241Z,64.37
2023-04-12T06:57:14.117Z,64.08
2023-04-12T07:02:14.111Z,63.76
2023-04-12T07:07:13.990Z,63.67
2023-04-12T07:12:13.954Z,63.55
2023-04-12T07:17:13.866Z,63.52
2023-04-12T07:22:14.226Z,63.44
2023-04-12T07:27:13.715Z,63.33
2023-04-12T07:32:13.689Z,63.45
2023-04-12T07:37:13.577Z,63.38
2023-04-12T07:42:13.555Z,63.23
2023-04-12T07:47:13.510Z,63.10
2023-04-12T07:52:13.409Z,62.86
2023-04-12T07:57:13.350Z,62.82
2023-04-12T08:02:13.364Z,62.85
2023-04-12T08:07:13.170Z,62.70
2023-04-12T08:12:13.152Z,62.57
2023-04-12T08:17:13.076Z,62.29
2023-04-12T08:22:13.789Z,62.15
2023-04-12T08:27:12.947Z,62.39
2023-04-12T08:32:12.897Z,62.65
2023-04-12T08:37:12.804Z,62.66
2023-04-12T08:42:12.757Z,62.83
2023-04-12T08:47:12.713Z,62.85
2023-04-12T08:52:12.632Z,62.73
2023-04-12T08:57:12.547Z,62.33
2023-04-12T09:02:12.597Z,61.62
2023-04-12T09:07:12.421Z,61.80
2023-04-12T09:12:12.363Z,61.98
2023-04-12T09:17:12.321Z,62.28
2023-04-12T09:22:12.265Z,62.66
2023-04-12T09:27:12.186Z,62.35
2023-04-12T09:32:12.097Z,62.50
2023-04-12T09:37:12.017Z,62.53
2023-04-12T09:42:29.254Z,62.36
2023-04-12T09:47:12.865Z,62.20
2023-04-12T09:52:11.842Z,62.34
2023-04-12T09:57:11.763Z,62.55
2023-04-12T10:02:11.757Z,62.50
2023-04-12T10:07:13.188Z,62.16
2023-04-12T10:12:11.577Z,62.29
2023-04-12T10:17:11.520Z,62.46
2023-04-12T10:22:11.416Z,62.36
2023-04-12T10:27:11.362Z,62.61
2023-04-12T10:32:11.351Z,62.96
2023-04-12T10:37:11.213Z,62.84
2023-04-12T10:42:11.161Z,62.82
2023-04-12T10:47:11.109Z,62.61
2023-04-12T10:52:11.075Z,62.38
2023-04-12T10:57:10.960Z,61.97
2023-04-12T11:02:11.025Z,62.04
2023-04-12T11:07:10.853Z,61.31
2023-04-12T11:12:11.241Z,60.67
2023-04-12T11:17:10.732Z,59.10
2023-04-12T11:22:10.667Z,58.51
2023-04-12T11:27:10.557Z,59.02
2023-04-12T11:32:10.558Z,57.70
2023-04-12T11:37:10.452Z,55.94
2023-04-12T11:42:10.377Z,54.90
2023-04-12T11:47:10.334Z,52.49
2023-04-12T11:52:10.220Z,44.67
2023-04-12T11:57:10.173Z,46.82
2023-04-12T12:02:21.895Z,51.45
2023-04-12T12:07:11.337Z,53.89
2023-04-12T12:12:09.941Z,54.95
2023-04-12T12:17:09.915Z,53.50
2023-04-12T12:22:09.846Z,52.89
2023-04-12T12:27:09.829Z,53.43
2023-04-12T12:32:09.712Z,54.36
2023-04-12T12:37:09.632Z,54.34
2023-04-12T12:42:09.654Z,54.98
2023-04-12T12:47:14.178Z,56.34
2023-04-12T12:52:10.432Z,57.37
2023-04-12T12:57:09.389Z,57.07
2023-04-12T13:02:09.447Z,56.83
2023-04-12T13:07:09.248Z,57.82
2023-04-12T13:12:09.193Z,58.10
2023-04-12T13:17:09.089Z,58.59
2023-04-12T13:22:09.066Z,59.17
2023-04-12T13:27:08.953Z,58.47
2023-04-12T13:32:08.931Z,56.72
2023-04-12T13:37:08.850Z,53.23
2023-04-12T13:42:09.514Z,53.30
2023-04-12T13:47:08.694Z,54.07
2023-04-12T13:52:08.648Z,54.25
2023-04-12T13:57:08.557Z,56.14
2023-04-12T14:02:08.628Z,57.24
2023-04-12T14:07:08.485Z,57.97
2023-04-12T14:12:08.356Z,58.90
2023-04-12T14:17:08.388Z,59.36
2023-04-12T14:22:08.245Z,59.57
2023-04-12T14:27:08.152Z,59.34
2023-04-12T14:32:08.119Z,59.71
2023-04-12T14:37:08.026Z,59.33
2023-04-12T14:42:07.996Z,55.42
2023-04-12T14:47:07.881Z,55.39
2023-04-12T14:52:07.828Z,54.21
2023-04-12T14:57:07.789Z,55.33
2023-04-12T15:02:07.904Z,56.22
2023-04-12T15:07:07.626Z,56.81
2023-04-12T15:12:07.649Z,55.22
2023-04-12T15:17:07.595Z,57.02
2023-04-12T15:22:07.424Z,56.44
2023-04-12T15:27:07.384Z,57.63
2023-04-12T15:32:07.350Z,58.47
2023-04-12T15:37:07.254Z,58.36
2023-04-12T15:42:07.180Z,58.26
2023-04-12T15:47:11.391Z,57.43
2023-04-12T15:52:07.063Z,56.32
2023-04-12T15:57:06.963Z,57.14
2023-04-12T16:02:06.957Z,56.14
2023-04-12T16:07:06.897Z,56.04
2023-04-12T16:12:06.774Z,55.82
2023-04-12T16:17:06.697Z,54.80
2023-04-12T16:22:06.638Z,53.96
2023-04-12T16:27:06.564Z,53.42
2023-04-12T16:32:06.657Z,53.91
2023-04-12T16:37:06.880Z,54.92
2023-04-12T16:42:06.368Z,55.10
2023-04-12T16:47:06.352Z,55.70
2023-04-12T16:52:06.241Z,56.11
2023-04-12T16:57:06.193Z,55.78
2023-04-12T17:02:06.147Z,55.48
2023-04-12T17:07:06.059Z,55.68
2023-04-12T17:12:05.958Z,56.14
2023-04-12T17:17:06.615Z,56.34
2023-04-12T17:22:06.688Z,56.78
2023-04-12T17:27:05.795Z,57.15
2023-04-12T17:32:05.741Z,57.56
2023-04-12T17:37:05.675Z,57.95
2023-04-12T17:42:05.685Z,58.23
2023-04-12T17:47:05.551Z,58.47
2023-04-12T17:52:05.463Z,58.62
2023-04-12T17:57:05.421Z,58.73
2023-04-12T18:02:05.411Z,58.83
2023-04-12T18:07:05.269Z,58.94
2023-04-12T18:12:05.201Z,59.17
2023-04-12T18:17:05.180Z,59.34
2023-04-12T18:22:05.050Z,59.47
2023-04-12T18:27:05.080Z,59.55
2023-04-12T18:32:04.945Z,59.65
2023-04-12T18:37:04.879Z,59.76
2023-04-12T18:42:04.784Z,59.88
2023-04-12T18:47:04.780Z,59.97
2023-04-12T18:52:04.668Z,60.06
2023-04-12T18:57:04.619Z,60.12
2023-04-12T19:02:04.581Z,60.24
2023-04-12T19:07:04.453Z,60.48
2023-04-12T19:12:04.384Z,60.64
2023-04-12T19:17:04.363Z,60.79
2023-04-12T19:22:04.224Z,60.88
2023-04-12T19:27:04.240Z,61.07
2023-04-12T19:32:04.184Z,61.12
2023-04-12T19:37:04.125Z,61.16
2023-04-12T19:42:04.045Z,61.27
2023-04-12T19:47:03.903Z,61.31
2023-04-12T19:52:03.879Z,61.43
2023-04-12T19:57:03.818Z,61.54
2023-04-12T20:02:03.759Z,61.71
2023-04-12T20:07:03.736Z,61.76
2023-04-12T20:12:03.623Z,61.72
2023-04-12T20:17:03.646Z,61.81
2023-04-12T20:22:03.516Z,61.81
2023-04-12T20:27:03.464Z,61.74
2023-04-12T20:32:03.325Z,61.62
2023-04-12T20:37:03.290Z,61.53
2023-04-12T20:42:03.296Z,61.48
2023-04-12T20:47:03.229Z,61.43
2023-04-12T20:52:03.081Z,61.41
2023-04-12T20:57:03.043Z,61.42
2023-04-12T21:02:02.997Z,61.46
2023-04-12T21:07:03.269Z,61.48
2023-04-12T21:12:02.812Z,61.56
2023-04-12T21:17:02.821Z,61.54
2023-04-12T21:22:02.698Z,61.53
2023-04-12T21:27:02.619Z,61.50
2023-04-12T21:32:02.588Z,61.48
2023-04-12T21:37:02.587Z,61.53
2023-04-12T21:42:02.417Z,61.59
2023-04-12T21:47:02.366Z,61.66
2023-04-12T21:52:02.282Z,61.76
2023-04-12T21:57:02.248Z,61.86
2023-04-12T22:02:02.275Z,61.96
2023-04-12T22:07:02.151Z,62.07
2023-04-12T22:12:02.028Z,62.19
2023-04-12T22:17:02.002Z,62.26
2023-04-12T22:22:01.886Z,62.30
2023-04-12T22:27:01.864Z,62.33
2023-04-12T22:32:01.755Z,62.39
2023-04-12T22:37:01.691Z,62.48
2023-04-12T22:42:01.629Z,62.63
2023-04-12T22:47:01.640Z,62.77
2023-04-12T22:52:01.546Z,63.06
2023-04-12T22:57:01.450Z,63.23
2023-04-12T23:02:01.467Z,63.32
2023-04-12T23:07:01.308Z,63.41
2023-04-12T23:12:01.244Z,63.31
2023-04-12T23:17:01.203Z,63.31
2023-04-12T23:22:01.101Z,63.29
2023-04-12T23:27:01.078Z,63.35
2023-04-12T23:32:01.026Z,63.34
2023-04-12T23:37:00.943Z,63.30
2023-04-12T23:42:00.817Z,63.36
2023-04-12T23:47:00.809Z,63.39
2023-04-12T23:52:00.696Z,63.40
2023-04-12T23:57:00.652Z,63.58
